This is the latest recevied weather packets stored in our database for station/object WA9AFM. If no packets are shown the sender has not sent any weather packets the latest 10 day(s).
| Time | Temp. | Humidity | Pressure | Rain* | Wind** | Luminosity | Snow |
|---|---|---|---|---|---|---|---|
| 1787450741 | 29.44° C | 65% | 1009.4 hPa | 0 mm | - | - | - |
| 1787449840 | 30° C | 64% | 1009.2 hPa | 0 mm | - | - | - |
| 1787448941 | 30.56° C | 63% | 1008.9 hPa | 0 mm | - | - | - |
| 1787448040 | 30.56° C | 61% | 1008.7 hPa | 0 mm | - | - | - |
| 1787447142 | 31.67° C | 57% | 1008.5 hPa | 0 mm | - | - | - |
| 1787446242 | 32.22° C | 54% | 1008.5 hPa | 0 mm | - | - | - |
| 1787445341 | 32.78° C | 50% | 1008.6 hPa | 0 mm | - | - | - |
| 1787444440 | 32.78° C | 48% | 1008.6 hPa | 0 mm | - | - | - |
| 1787443542 | 33.33° C | 46% | 1008.8 hPa | 0 mm | - | - | - |
| 1787442641 | 34.44° C | 45% | 1008.8 hPa | 0 mm | - | - | - |
| 1787441740 | 34.44° C | 45% | 1008.8 hPa | 0 mm | - | - | - |
| 1787440842 | 35° C | 45% | 1008.8 hPa | 0 mm | - | - | - |
| 1787439941 | 35° C | 45% | 1008.7 hPa | 0 mm | - | - | - |
| 1787439040 | 35° C | 45% | 1008.8 hPa | 0 mm | - | - | - |
| 1787438142 | 35.56° C | 44% | 1008.8 hPa | 0 mm | - | - | - |
| 1787437240 | 35.56° C | 43% | 1008.9 hPa | 0 mm | - | - | - |
| 1787436340 | 37.22° C | 33% | 1008.9 hPa | 0 mm | - | - | - |
| 1787435441 | 37.78° C | 32% | 1009 hPa | 0 mm | - | - | - |
| 1787434541 | 37.78° C | 32% | 1009.4 hPa | 0 mm | - | - | - |
| 1787433087 | 37.78° C | 32% | 1009.4 hPa | 0 mm | - | - | - |
| 1787432189 | 37.22° C | 34% | 1009.7 hPa | 0 mm | - | - | - |
| 1787431288 | 36.11° C | 35% | 1010 hPa | 0 mm | - | - | - |
| 1787430387 | 35° C | 39% | 1009.7 hPa | 0 mm | - | - | - |
| 1787429489 | 34.44° C | 41% | 1009.7 hPa | 0 mm | - | - | - |
| 1787428588 | 34.44° C | 39% | 1010 hPa | 0 mm | - | - | - |
* Rain latest hour (hover to see other rain measurements)
** Current wind speed in m/s (hover to see current wind gust speed)